Time;durP1;ratioP1;P1;durP2;ratioP2;P2;SDS_P1;SDS_P2;PMS_P1;PMS_P2;Temp;Humidity;BMP_temperature;BMP_pressure;BME280_temperature;BME280_humidity;BME280_pressure;Samples;Min_cycle;Max_cycle;Signal;HPM_P1;HPM_P2
2023/07/18 00:01:20;;;;;;;12.02;10.93;;;;;;;;;;10243884;28;20064;-67
2023/07/18 00:06:18;;;;;;;10.10;9.25;;;;;;;;;;10239214;28;20045;-68
2023/07/18 00:11:17;;;;;;;10.48;9.38;;;;;;;;;;10236976;28;20056;-68
2023/07/18 00:16:14;;;;;;;11.23;10.15;;;;;;;;;;10229596;28;20099;-67
2023/07/18 00:21:12;;;;;;;11.43;10.30;;;;;;;;;;10253513;28;20457;-67
2023/07/18 00:26:08;;;;;;;11.45;10.40;;;;;;;;;;10245294;28;20048;-67
2023/07/18 00:31:05;;;;;;;11.38;9.95;;;;;;;;;;10225626;28;20132;-68
2023/07/18 00:36:02;;;;;;;12.70;10.65;;;;;;;;;;10233701;28;20521;-68
2023/07/18 00:40:59;;;;;;;11.65;10.45;;;;;;;;;;10232857;28;20053;-68
2023/07/18 00:45:55;;;;;;;12.00;10.98;;;;;;;;;;10247726;28;20053;-67
2023/07/18 00:50:51;;;;;;;11.77;10.57;;;;;;;;;;10254033;28;20045;-68
2023/07/18 00:55:49;;;;;;;13.10;10.80;;;;;;;;;;10250643;28;20186;-68
2023/07/18 01:00:45;;;;;;;12.95;11.75;;;;;;;;;;10237318;28;20112;-68
2023/07/18 01:05:42;;;;;;;12.02;10.82;;;;;;;;;;10228970;28;20136;-68
2023/07/18 01:10:38;;;;;;;12.57;11.18;;;;;;;;;;10238336;28;20099;-68
2023/07/18 01:15:34;;;;;;;13.23;11.70;;;;;;;;;;10244242;28;20045;-67
2023/07/18 01:20:33;;;;;;;12.38;11.10;;;;;;;;;;10254084;28;20056;-68
2023/07/18 01:25:30;;;;;;;13.30;11.95;;;;;;;;;;10245257;28;20477;-68
2023/07/18 01:30:26;;;;;;;14.10;12.55;;;;;;;;;;10228429;28;20112;-68
2023/07/18 01:35:24;;;;;;;15.05;13.20;;;;;;;;;;10239034;28;20053;-68
2023/07/18 01:40:21;;;;;;;14.25;12.90;;;;;;;;;;10242255;28;20061;-69
2023/07/18 01:45:19;;;;;;;13.75;12.45;;;;;;;;;;10240382;28;20061;-69
2023/07/18 01:50:15;;;;;;;13.43;12.13;;;;;;;;;;10239819;28;20049;-69
2023/07/18 01:55:12;;;;;;;15.15;13.55;;;;;;;;;;10238788;28;20475;-70
2023/07/18 02:00:12;;;;;;;16.75;14.32;;;;;;;;;;10242977;28;20099;-68
2023/07/18 02:05:08;;;;;;;15.05;12.88;;;;;;;;;;10255662;28;20111;-67
2023/07/18 02:10:05;;;;;;;16.02;14.52;;;;;;;;;;10241281;28;20100;-67
2023/07/18 02:15:02;;;;;;;14.30;13.00;;;;;;;;;;10231684;28;20045;-70
2023/07/18 02:19:58;;;;;;;16.98;14.13;;;;;;;;;;10245346;28;20115;-70
2023/07/18 02:24:54;;;;;;;14.55;13.02;;;;;;;;;;10251218;28;20049;-69
2023/07/18 02:29:51;;;;;;;15.82;14.13;;;;;;;;;;10236064;28;20053;-68
2023/07/18 02:34:47;;;;;;;15.75;14.05;;;;;;;;;;10226186;28;20468;-68
2023/07/18 02:39:44;;;;;;;16.30;14.23;;;;;;;;;;10251581;28;20535;-67
2023/07/18 02:44:40;;;;;;;15.07;13.57;;;;;;;;;;10227639;28;20042;-67
2023/07/18 02:49:37;;;;;;;15.93;14.07;;;;;;;;;;10238650;28;20100;-67
2023/07/18 02:54:33;;;;;;;15.68;14.10;;;;;;;;;;10246514;28;20521;-68
2023/07/18 02:59:29;;;;;;;21.55;15.50;;;;;;;;;;10234843;28;20508;-68
2023/07/18 03:04:29;;;;;;;15.95;14.30;;;;;;;;;;10240711;28;20633;-68
2023/07/18 03:09:27;;;;;;;17.13;15.32;;;;;;;;;;10252568;28;20044;-68
2023/07/18 03:14:23;;;;;;;16.65;14.90;;;;;;;;;;10245535;28;20628;-67
2023/07/18 03:19:19;;;;;;;17.45;14.85;;;;;;;;;;10235631;28;20103;-67
2023/07/18 03:24:16;;;;;;;18.38;14.05;;;;;;;;;;10227612;28;20092;-66
2023/07/18 03:29:14;;;;;;;18.45;16.35;;;;;;;;;;10238626;28;20068;-69
2023/07/18 03:34:10;;;;;;;17.33;15.43;;;;;;;;;;10239320;28;20037;-69
2023/07/18 03:39:07;;;;;;;17.48;15.10;;;;;;;;;;10232215;28;20048;-69
2023/07/18 03:44:04;;;;;;;17.30;14.82;;;;;;;;;;10232784;28;20056;-68
2023/07/18 03:49:01;;;;;;;18.83;15.27;;;;;;;;;;10236589;28;20053;-70
2023/07/18 03:53:58;;;;;;;16.95;13.90;;;;;;;;;;10222368;28;20153;-69
2023/07/18 03:58:56;;;;;;;17.60;15.70;;;;;;;;;;10215834;28;20061;-69
2023/07/18 04:03:52;;;;;;;16.80;14.98;;;;;;;;;;10225689;28;20045;-69
2023/07/18 04:08:48;;;;;;;14.95;13.45;;;;;;;;;;10226114;28;20136;-69
2023/07/18 04:13:45;;;;;;;16.08;14.40;;;;;;;;;;10220223;28;20049;-69
2023/07/18 04:18:41;;;;;;;18.58;13.50;;;;;;;;;;10207673;28;20398;-69
2023/07/18 04:23:38;;;;;;;20.13;13.80;;;;;;;;;;10223412;28;20119;-69
2023/07/18 04:28:36;;;;;;;19.13;15.07;;;;;;;;;;10225527;28;20050;-69
2023/07/18 04:33:34;;;;;;;18.23;14.70;;;;;;;;;;10232240;28;20064;-69
2023/07/18 04:38:30;;;;;;;17.05;14.10;;;;;;;;;;10221660;28;20049;-70
2023/07/18 04:43:27;;;;;;;16.10;13.55;;;;;;;;;;10217384;28;20557;-69
2023/07/18 04:48:23;;;;;;;24.98;15.00;;;;;;;;;;10210670;28;20049;-69
2023/07/18 04:53:19;;;;;;;16.55;12.88;;;;;;;;;;10214543;28;20080;-69
2023/07/18 04:58:17;;;;;;;21.50;14.27;;;;;;;;;;10206481;28;20049;-69
2023/07/18 05:03:13;;;;;;;16.77;13.35;;;;;;;;;;10213327;28;20104;-69
2023/07/18 05:08:10;;;;;;;18.92;14.23;;;;;;;;;;10208833;28;20045;-69
2023/07/18 05:13:07;;;;;;;19.08;14.13;;;;;;;;;;10203255;28;20049;-69
2023/07/18 05:18:03;;;;;;;13.95;12.45;;;;;;;;;;10227263;28;20099;-69
2023/07/18 05:23:01;;;;;;;19.35;13.68;;;;;;;;;;10228143;28;20148;-70
2023/07/18 05:27:58;;;;;;;15.63;12.27;;;;;;;;;;10206996;28;20045;-69
2023/07/18 05:32:54;;;;;;;19.02;12.88;;;;;;;;;;10228017;28;20119;-71
2023/07/18 05:37:51;;;;;;;18.15;12.35;;;;;;;;;;10312369;22;20432;-70
2023/07/18 05:42:47;;;;;;;15.77;12.50;;;;;;;;;;10310215;28;20090;-70
2023/07/18 05:47:43;;;;;;;16.83;12.35;;;;;;;;;;10297468;28;20094;-70
2023/07/18 05:52:40;;;;;;;13.73;12.35;;;;;;;;;;10308494;28;20056;-69
2023/07/18 05:57:37;;;;;;;13.30;10.95;;;;;;;;;;10310228;28;20110;-70
2023/07/18 06:02:34;;;;;;;17.17;12.98;;;;;;;;;;10306705;28;20143;-69
2023/07/18 06:07:31;;;;;;;15.05;12.30;;;;;;;;;;10433938;22;20110;-70
2023/07/18 06:12:27;;;;;;;19.23;12.73;;;;;;;;;;10312952;28;20500;-70
2023/07/18 06:17:23;;;;;;;16.80;13.02;;;;;;;;;;10302646;28;20575;-69
2023/07/18 06:22:20;;;;;;;17.83;11.75;;;;;;;;;;10302213;28;20048;-70
2023/07/18 06:27:26;;;;;;;13.57;11.00;;;;;;;;;;10342030;22;20671;-70
2023/07/18 06:32:23;;;;;;;13.35;11.05;;;;;;;;;;10270399;28;20045;-70
2023/07/18 06:37:20;;;;;;;14.88;12.27;;;;;;;;;;10253430;28;20049;-70
2023/07/18 06:42:16;;;;;;;13.32;11.93;;;;;;;;;;10267430;28;20051;-70
2023/07/18 06:47:15;;;;;;;15.63;11.50;;;;;;;;;;10272355;28;20680;-70
2023/07/18 06:52:12;;;;;;;18.10;11.20;;;;;;;;;;10259008;28;20056;-70
2023/07/18 07:02:20;;;;;;;15.70;11.67;;;;;;;;;;10369814;22;20052;-70
2023/07/18 07:12:50;;;;;;;14.90;11.95;;;;;;;;;;10146086;26;20119;-70
2023/07/18 07:17:51;;;;;;;17.50;12.20;;;;;;;;;;10390756;22;20075;-70
2023/07/18 07:22:48;;;;;;;17.75;11.82;;;;;;;;;;10395237;27;20085;-70
2023/07/18 07:27:46;;;;;;;14.88;11.55;;;;;;;;;;10383680;22;20057;-70
2023/07/18 07:32:47;;;;;;;13.38;9.93;;;;;;;;;;10315185;28;20065;-69
2023/07/18 07:42:55;;;;;;;16.10;10.88;;;;;;;;;;10060232;26;20064;-70
2023/07/18 07:47:51;;;;;;;12.70;10.65;;;;;;;;;;10242607;28;20475;-70
2023/07/18 07:52:48;;;;;;;13.25;10.00;;;;;;;;;;10260920;28;20500;-70
2023/07/18 07:57:44;;;;;;;12.18;9.43;;;;;;;;;;10528818;22;20126;-70
2023/07/18 08:02:40;;;;;;;13.82;10.95;;;;;;;;;;10308883;28;20040;-70
2023/07/18 08:07:38;;;;;;;14.05;9.30;;;;;;;;;;10318585;28;20071;-69
2023/07/18 08:12:34;;;;;;;12.00;9.63;;;;;;;;;;10322430;28;20044;-69
2023/07/18 08:22:36;;;;;;;10.50;9.40;;;;;;;;;;10301804;28;20040;-69
2023/07/18 08:38:49;;;;;;;9.40;8.18;;;;;;;;;;10275243;28;20067;-69
2023/07/18 08:43:47;;;;;;;10.32;8.90;;;;;;;;;;10309058;28;20048;-69
2023/07/18 08:48:43;;;;;;;9.60;8.70;;;;;;;;;;10316618;28;20695;-69
2023/07/18 08:53:40;;;;;;;9.68;8.32;;;;;;;;;;10326093;28;20102;-69
2023/07/18 08:58:37;;;;;;;9.88;8.90;;;;;;;;;;10311130;28;20048;-69
2023/07/18 09:03:33;;;;;;;9.95;8.52;;;;;;;;;;10326573;28;20583;-69
2023/07/18 09:08:43;;;;;;;8.57;7.78;;;;;;;;;;10455281;22;20047;-69
2023/07/18 09:13:40;;;;;;;8.70;7.75;;;;;;;;;;10352882;28;20098;-69
2023/07/18 09:29:09;;;;;;;8.55;7.28;;;;;;;;;;10377405;27;20047;-69
2023/07/18 09:34:10;;;;;;;8.88;7.68;;;;;;;;;;10378239;27;20044;-70
2023/07/18 09:39:07;;;;;;;8.43;7.68;;;;;;;;;;10385838;27;20044;-70
2023/07/18 09:44:04;;;;;;;8.65;7.78;;;;;;;;;;10388284;27;20047;-70
2023/07/18 09:49:21;;;;;;;7.78;7.05;;;;;;;;;;10393319;27;20434;-69
2023/07/18 09:54:20;;;;;;;8.30;7.50;;;;;;;;;;10387189;27;20051;-70
2023/07/18 09:59:17;;;;;;;8.52;7.82;;;;;;;;;;10921371;22;20105;-70
2023/07/18 10:04:14;;;;;;;11.20;8.30;;;;;;;;;;10345851;28;20055;-70
2023/07/18 10:09:11;;;;;;;8.43;7.75;;;;;;;;;;10331828;28;20048;-69
2023/07/18 10:14:08;;;;;;;8.75;7.47;;;;;;;;;;10345448;28;20125;-70
2023/07/18 10:19:18;;;;;;;8.48;7.75;;;;;;;;;;10332304;28;20574;-70
2023/07/18 10:24:20;;;;;;;9.52;8.73;;;;;;;;;;10347072;28;20039;-70
2023/07/18 10:29:17;;;;;;;10.35;8.13;;;;;;;;;;10349930;28;20048;-70
2023/07/18 10:34:15;;;;;;;8.80;8.02;;;;;;;;;;10360002;28;20422;-70
2023/07/18 10:39:15;;;;;;;8.30;7.13;;;;;;;;;;10360579;28;20046;-69
2023/07/18 10:44:12;;;;;;;8.35;7.65;;;;;;;;;;10327968;28;20040;-70
2023/07/18 10:54:23;;;;;;;8.18;7.38;;;;;;;;;;10091901;26;20037;-70
2023/07/18 11:00:07;;;;;;;8.07;7.38;;;;;;;;;;10403009;22;20517;-71
2023/07/18 11:05:11;;;;;;;9.48;7.57;;;;;;;;;;10292049;28;20123;-70
2023/07/18 11:10:09;;;;;;;7.95;7.25;;;;;;;;;;10320813;28;20070;-70
2023/07/18 11:15:06;;;;;;;8.38;7.53;;;;;;;;;;10312986;28;20052;-70
2023/07/18 11:20:03;;;;;;;8.85;7.50;;;;;;;;;;10293552;28;20052;-70
2023/07/18 11:24:59;;;;;;;8.10;7.10;;;;;;;;;;10315333;28;20461;-70
2023/07/18 11:30:08;;;;;;;7.60;6.90;;;;;;;;;;10322462;28;20056;-71
2023/07/18 11:35:26;;;;;;;7.60;6.90;;;;;;;;;;10314617;28;20060;-70
2023/07/18 11:40:25;;;;;;;7.80;7.18;;;;;;;;;;10285516;28;20052;-70
2023/07/18 11:45:23;;;;;;;7.50;6.90;;;;;;;;;;10315678;28;20079;-70
2023/07/18 11:50:20;;;;;;;7.88;7.28;;;;;;;;;;10313068;28;20072;-70
2023/07/18 11:55:17;;;;;;;8.10;7.47;;;;;;;;;;10310350;28;20663;-70
2023/07/18 12:00:14;;;;;;;8.32;7.45;;;;;;;;;;10327520;22;20056;-70
2023/07/18 12:05:15;;;;;;;7.07;6.47;;;;;;;;;;10265221;28;20674;-70
2023/07/18 12:10:14;;;;;;;7.10;6.45;;;;;;;;;;10293650;28;20126;-70
2023/07/18 12:15:11;;;;;;;8.13;7.30;;;;;;;;;;10299192;28;20056;-70
2023/07/18 12:20:07;;;;;;;6.90;6.30;;;;;;;;;;10297585;28;20106;-70
2023/07/18 12:25:04;;;;;;;6.75;6.00;;;;;;;;;;10282707;28;20098;-70
2023/07/18 12:30:00;;;;;;;8.45;7.65;;;;;;;;;;10309438;28;20071;-70
2023/07/18 12:34:57;;;;;;;8.25;7.15;;;;;;;;;;10306602;28;20084;-70
2023/07/18 12:39:53;;;;;;;7.07;6.38;;;;;;;;;;10344139;22;20064;-70
2023/07/18 12:44:51;;;;;;;7.25;6.65;;;;;;;;;;10260986;28;20187;-70
2023/07/18 12:49:47;;;;;;;6.35;5.82;;;;;;;;;;10278979;28;20053;-70
2023/07/18 12:54:47;;;;;;;6.70;6.05;;;;;;;;;;10284297;28;20053;-71
2023/07/18 12:59:43;;;;;;;6.38;5.85;;;;;;;;;;10278267;28;20496;-70
2023/07/18 13:04:39;;;;;;;7.95;6.70;;;;;;;;;;10281815;28;20032;-71
2023/07/18 13:09:38;;;;;;;7.40;6.00;;;;;;;;;;10285882;28;20480;-70
2023/07/18 13:14:34;;;;;;;6.82;6.22;;;;;;;;;;10293315;28;20531;-70
2023/07/18 13:19:54;;;;;;;9.02;5.80;;;;;;;;;;10579374;23;20055;-70
2023/07/18 13:24:50;;;;;;;8.32;6.10;;;;;;;;;;10287179;28;20044;-70
2023/07/18 13:29:47;;;;;;;7.40;6.72;;;;;;;;;;10306136;28;20096;-70
2023/07/18 13:34:43;;;;;;;6.85;6.18;;;;;;;;;;10313599;28;20476;-69
2023/07/18 13:39:40;;;;;;;7.95;6.50;;;;;;;;;;10315371;28;20534;-69
2023/07/18 13:44:37;;;;;;;7.28;6.60;;;;;;;;;;10315620;28;20044;-69
2023/07/18 13:49:36;;;;;;;7.57;6.43;;;;;;;;;;10313044;28;20051;-69
2023/07/18 13:54:45;;;;;;;7.40;6.70;;;;;;;;;;10316329;28;20045;-69
2023/07/18 13:59:42;;;;;;;7.35;6.63;;;;;;;;;;10312361;28;20083;-70
2023/07/18 14:04:39;;;;;;;6.85;6.25;;;;;;;;;;10316114;28;20504;-69
2023/07/18 14:09:35;;;;;;;11.10;7.80;;;;;;;;;;10307898;28;20053;-70
2023/07/18 14:14:32;;;;;;;6.68;6.10;;;;;;;;;;10314347;28;20055;-70
2023/07/18 14:19:28;;;;;;;6.90;6.30;;;;;;;;;;10311821;28;20040;-70
2023/07/18 14:24:24;;;;;;;7.10;6.50;;;;;;;;;;10311482;28;20049;-70
2023/07/18 14:29:21;;;;;;;7.53;6.82;;;;;;;;;;10312131;28;20786;-70
2023/07/18 14:34:17;;;;;;;7.28;6.55;;;;;;;;;;10311243;28;20044;-70
2023/07/18 14:39:14;;;;;;;7.05;6.35;;;;;;;;;;10312378;28;20079;-69
2023/07/18 14:44:10;;;;;;;7.55;6.65;;;;;;;;;;10310775;28;20036;-70
2023/07/18 14:49:07;;;;;;;8.00;7.20;;;;;;;;;;10306501;28;20083;-70
2023/07/18 14:54:03;;;;;;;7.65;6.28;;;;;;;;;;10312633;28;20102;-70
2023/07/18 14:59:00;;;;;;;7.45;6.75;;;;;;;;;;10340720;22;20131;-70
2023/07/18 15:03:56;;;;;;;7.30;6.78;;;;;;;;;;10315733;27;20053;-70
2023/07/18 15:08:53;;;;;;;7.28;6.30;;;;;;;;;;10295819;28;20067;-70
2023/07/18 15:13:49;;;;;;;7.13;6.43;;;;;;;;;;10293373;28;20558;-70
2023/07/18 15:18:46;;;;;;;9.68;6.53;;;;;;;;;;10296222;28;20418;-70
2023/07/18 15:23:42;;;;;;;7.72;6.40;;;;;;;;;;10295273;28;20067;-71
2023/07/18 15:28:39;;;;;;;7.68;6.32;;;;;;;;;;10309171;28;20040;-71
2023/07/18 15:33:36;;;;;;;7.72;6.93;;;;;;;;;;10284715;28;20045;-71
2023/07/18 15:43:40;;;;;;;8.60;7.90;;;;;;;;;;10402577;22;20078;-71
2023/07/18 15:53:42;;;;;;;8.05;7.35;;;;;;;;;;10346193;28;20102;-71
2023/07/18 15:58:38;;;;;;;8.23;7.43;;;;;;;;;;10754075;22;20051;-69
2023/07/18 16:03:34;;;;;;;8.88;8.07;;;;;;;;;;10341394;28;21833;-70
2023/07/18 16:08:31;;;;;;;9.02;8.23;;;;;;;;;;10348819;28;20055;-70
2023/07/18 16:13:31;;;;;;;7.88;7.20;;;;;;;;;;10382488;28;20051;-71
2023/07/18 16:18:27;;;;;;;8.32;7.45;;;;;;;;;;10375900;28;20483;-71
2023/07/18 16:23:24;;;;;;;7.68;6.97;;;;;;;;;;10378680;28;20074;-70
2023/07/18 16:28:20;;;;;;;8.20;7.43;;;;;;;;;;10411888;22;20059;-70
2023/07/18 16:33:17;;;;;;;8.10;7.30;;;;;;;;;;10343487;28;20707;-70
2023/07/18 16:38:13;;;;;;;7.85;7.10;;;;;;;;;;10338427;28;20119;-70
2023/07/18 16:43:09;;;;;;;8.52;7.65;;;;;;;;;;10332096;28;20127;-71
2023/07/18 16:53:18;;;;;;;7.95;7.15;;;;;;;;;;9879852;26;20049;-70
2023/07/18 17:03:26;;;;;;;8.13;7.43;;;;;;;;;;10256721;22;20053;-70
2023/07/18 17:08:22;;;;;;;7.28;6.75;;;;;;;;;;10324415;22;20091;-70
2023/07/18 17:13:21;;;;;;;7.80;7.10;;;;;;;;;;10287940;28;20052;-70
2023/07/18 17:18:17;;;;;;;8.25;7.50;;;;;;;;;;10286644;28;20608;-70
2023/07/18 17:23:13;;;;;;;8.95;7.38;;;;;;;;;;10258405;28;20408;-70
2023/07/18 17:28:10;;;;;;;8.25;7.20;;;;;;;;;;10265597;28;20517;-70
2023/07/18 17:33:06;;;;;;;8.20;7.22;;;;;;;;;;10270035;28;20637;-69
2023/07/18 17:38:03;;;;;;;7.00;6.30;;;;;;;;;;10274979;28;20659;-70
2023/07/18 17:43:01;;;;;;;7.10;6.40;;;;;;;;;;10265668;28;20098;-69
2023/07/18 17:47:58;;;;;;;7.78;6.97;;;;;;;;;;10269357;28;20056;-70
2023/07/18 17:52:56;;;;;;;8.38;7.55;;;;;;;;;;10267444;28;20509;-70
2023/07/18 17:57:52;;;;;;;9.80;8.80;;;;;;;;;;10277491;28;20075;-69
2023/07/18 18:02:48;;;;;;;8.43;7.72;;;;;;;;;;10267018;28;20099;-70
2023/07/18 18:12:56;;;;;;;8.52;7.63;;;;;;;;;;9878725;26;20049;-70
2023/07/18 18:17:55;;;;;;;7.18;6.57;;;;;;;;;;10351188;22;20055;-70
2023/07/18 18:22:51;;;;;;;8.02;7.43;;;;;;;;;;10342936;28;20058;-70
2023/07/18 18:27:48;;;;;;;7.82;7.15;;;;;;;;;;10350644;28;20045;-70
2023/07/18 18:32:45;;;;;;;8.32;7.40;;;;;;;;;;10339541;28;20568;-70
2023/07/18 18:37:46;;;;;;;7.45;6.85;;;;;;;;;;10346136;28;20415;-70
2023/07/18 18:42:49;;;;;;;7.75;7.05;;;;;;;;;;10340073;28;20041;-70
2023/07/18 18:47:48;;;;;;;7.50;6.85;;;;;;;;;;10356239;22;20049;-70
2023/07/18 18:52:44;;;;;;;7.63;7.03;;;;;;;;;;10304298;28;20041;-70
2023/07/18 18:57:41;;;;;;;7.57;6.88;;;;;;;;;;10322070;22;20048;-70
2023/07/18 19:02:37;;;;;;;7.78;7.07;;;;;;;;;;10344746;28;20051;-70
2023/07/18 19:07:34;;;;;;;7.55;6.85;;;;;;;;;;10355469;28;20138;-70
2023/07/18 19:12:30;;;;;;;7.80;6.45;;;;;;;;;;10386713;28;20445;-70
2023/07/18 19:17:27;;;;;;;7.13;6.07;;;;;;;;;;10393583;22;20055;-70
2023/07/18 19:22:23;;;;;;;8.63;7.68;;;;;;;;;;10301794;28;20074;-70
2023/07/18 19:27:20;;;;;;;8.75;7.22;;;;;;;;;;10308392;28;20470;-69
2023/07/18 19:32:16;;;;;;;7.70;6.70;;;;;;;;;;10293089;28;20650;-70
2023/07/18 19:37:13;;;;;;;7.50;6.82;;;;;;;;;;10301309;28;20045;-70
2023/07/18 19:42:09;;;;;;;7.35;6.65;;;;;;;;;;10295272;28;20040;-70
2023/07/18 19:47:06;;;;;;;8.80;7.90;;;;;;;;;;10291623;28;20051;-69
2023/07/18 19:52:02;;;;;;;8.35;7.65;;;;;;;;;;10285721;28;20065;-69
2023/07/18 19:57:01;;;;;;;8.10;7.30;;;;;;;;;;10286763;28;20693;-66
2023/07/18 20:01:57;;;;;;;7.80;7.10;;;;;;;;;;10298585;28;20423;-65
2023/07/18 20:06:54;;;;;;;7.78;6.97;;;;;;;;;;10291963;28;20579;-66
2023/07/18 20:11:53;;;;;;;7.60;6.97;;;;;;;;;;10294395;28;20071;-66
2023/07/18 20:16:49;;;;;;;7.93;7.25;;;;;;;;;;10304091;28;20053;-66
2023/07/18 20:21:46;;;;;;;7.93;7.13;;;;;;;;;;10295008;28;20060;-67
2023/07/18 20:26:42;;;;;;;8.88;7.50;;;;;;;;;;10292350;28;20053;-67
2023/07/18 20:31:39;;;;;;;10.45;7.72;;;;;;;;;;10278340;28;20623;-67
2023/07/18 20:36:36;;;;;;;8.52;7.82;;;;;;;;;;10286246;28;20049;-67
2023/07/18 20:41:32;;;;;;;9.15;8.25;;;;;;;;;;10296316;28;20048;-67
2023/07/18 20:46:28;;;;;;;8.80;8.00;;;;;;;;;;10283961;28;20674;-67
2023/07/18 20:51:25;;;;;;;8.05;7.30;;;;;;;;;;10288773;28;20571;-66
2023/07/18 20:56:21;;;;;;;8.35;7.50;;;;;;;;;;10294556;28;20041;-66
2023/07/18 21:01:18;;;;;;;8.95;8.20;;;;;;;;;;10293218;28;20099;-67
2023/07/18 21:06:15;;;;;;;8.43;7.53;;;;;;;;;;10288735;28;20060;-66
2023/07/18 21:11:11;;;;;;;8.95;8.25;;;;;;;;;;10304129;28;20064;-66
2023/07/18 21:16:10;;;;;;;7.75;7.10;;;;;;;;;;10298258;28;20076;-67
2023/07/18 21:21:07;;;;;;;8.15;7.45;;;;;;;;;;10292133;28;20048;-67
2023/07/18 21:26:03;;;;;;;9.10;8.20;;;;;;;;;;10295149;28;20053;-67
2023/07/18 21:30:59;;;;;;;8.80;8.05;;;;;;;;;;10289828;28;20115;-68
2023/07/18 21:35:57;;;;;;;9.60;8.77;;;;;;;;;;10301972;28;20048;-68
2023/07/18 21:40:53;;;;;;;9.25;8.30;;;;;;;;;;10293310;28;20087;-67
2023/07/18 21:45:49;;;;;;;10.90;9.07;;;;;;;;;;10299228;28;20088;-66
2023/07/18 21:50:46;;;;;;;9.25;8.45;;;;;;;;;;10296759;28;20143;-67
2023/07/18 21:55:42;;;;;;;8.75;8.07;;;;;;;;;;10301123;28;20106;-66
2023/07/18 22:00:38;;;;;;;8.82;8.13;;;;;;;;;;10295820;28;20052;-66
2023/07/18 22:05:34;;;;;;;8.65;7.95;;;;;;;;;;10308652;28;20053;-67
2023/07/18 22:10:32;;;;;;;9.23;8.32;;;;;;;;;;10303584;28;20052;-68
2023/07/18 22:15:29;;;;;;;10.05;9.05;;;;;;;;;;10301200;28;20040;-66
2023/07/18 22:20:25;;;;;;;9.32;8.57;;;;;;;;;;10313442;28;20047;-66
2023/07/18 22:25:21;;;;;;;9.60;8.73;;;;;;;;;;10289184;28;20052;-66
2023/07/18 22:30:18;;;;;;;9.90;8.90;;;;;;;;;;10300421;28;20055;-65
2023/07/18 22:35:17;;;;;;;9.73;8.82;;;;;;;;;;10295462;28;20049;-66
2023/07/18 22:40:14;;;;;;;9.70;8.77;;;;;;;;;;10316225;28;20049;-69
2023/07/18 22:45:10;;;;;;;9.10;8.40;;;;;;;;;;10305908;28;20052;-66
2023/07/18 22:50:07;;;;;;;9.95;9.02;;;;;;;;;;10319847;28;20063;-69
2023/07/18 22:55:03;;;;;;;8.88;8.07;;;;;;;;;;10299375;28;20515;-68
2023/07/18 23:00:00;;;;;;;9.73;8.95;;;;;;;;;;10295870;28;20091;-66
2023/07/18 23:04:56;;;;;;;11.00;9.27;;;;;;;;;;10294859;28;20053;-67
2023/07/18 23:09:52;;;;;;;10.43;9.63;;;;;;;;;;10304138;28;20045;-66
2023/07/18 23:14:51;;;;;;;10.10;9.18;;;;;;;;;;10297460;28;20049;-66
2023/07/18 23:19:48;;;;;;;9.82;8.98;;;;;;;;;;10295891;28;20056;-66
2023/07/18 23:24:44;;;;;;;9.88;9.07;;;;;;;;;;10288933;28;20076;-66
2023/07/18 23:29:40;;;;;;;9.82;9.02;;;;;;;;;;10296421;28;20102;-66
2023/07/18 23:34:36;;;;;;;10.07;9.13;;;;;;;;;;10291769;28;20136;-66
2023/07/18 23:39:33;;;;;;;10.80;9.75;;;;;;;;;;10309497;28;20044;-67
2023/07/18 23:44:29;;;;;;;10.13;9.23;;;;;;;;;;10291941;28;20040;-66
2023/07/18 23:49:25;;;;;;;10.23;9.32;;;;;;;;;;10294541;28;20063;-66
2023/07/18 23:54:22;;;;;;;10.30;9.38;;;;;;;;;;10292319;28;20494;-66
2023/07/18 23:59:22;;;;;;;9.73;9.02;;;;;;;;;;10302565;28;20040;-66
